createdAt,value
2022-08-09T00:00:21.519Z,2.30
2022-08-09T00:02:51.882Z,1.95
2022-08-09T00:06:19.202Z,2.20
2022-08-09T00:08:12.833Z,2.10
2022-08-09T00:10:42.549Z,2.10
2022-08-09T00:13:16.699Z,2.47
2022-08-09T00:15:58.735Z,2.00
2022-08-09T00:18:31.418Z,2.08
2022-08-09T00:21:04.515Z,2.30
2022-08-09T00:23:55.642Z,2.50
2022-08-09T00:26:30.057Z,2.30
2022-08-09T00:29:01.556Z,2.15
2022-08-09T00:31:57.229Z,2.40
2022-08-09T00:34:19.238Z,2.40
2022-08-09T00:36:48.916Z,2.15
2022-08-09T00:40:09.100Z,2.28
2022-08-09T00:44:16.716Z,2.17
2022-08-09T00:44:55.945Z,2.03
2022-08-09T00:47:25.395Z,2.22
2022-08-09T00:49:55.064Z,2.50
2022-08-09T00:52:28.167Z,2.50
2022-08-09T00:55:00.320Z,2.35
2022-08-09T00:57:33.915Z,1.98
2022-08-09T01:00:21.423Z,2.47
2022-08-09T01:02:52.678Z,2.33
2022-08-09T01:05:51.125Z,2.30
2022-08-09T01:08:26.859Z,2.95
2022-08-09T01:11:08.519Z,2.35
2022-08-09T01:13:58.947Z,2.40
2022-08-09T01:16:35.292Z,2.70
2022-08-09T01:19:17.147Z,2.22
2022-08-09T01:22:34.694Z,2.08
2022-08-09T01:25:19.127Z,2.75
2022-08-09T01:27:52.487Z,2.38
2022-08-09T01:30:28.551Z,2.67
2022-08-09T01:33:03.474Z,2.30
2022-08-09T01:35:39.220Z,2.40
2022-08-09T01:38:15.388Z,2.45
2022-08-09T01:43:51.331Z,2.50
2022-08-09T01:46:25.142Z,2.38
2022-08-09T01:48:57.192Z,2.30
2022-08-09T01:51:32.254Z,2.10
2022-08-09T01:54:02.685Z,2.25
2022-08-09T01:56:34.307Z,2.42
2022-08-09T01:59:09.254Z,2.30
2022-08-09T02:01:58.020Z,2.03
2022-08-09T02:04:29.575Z,2.08
2022-08-09T02:07:17.973Z,2.25
2022-08-09T02:10:04.129Z,2.67
2022-08-09T02:12:34.710Z,2.20
2022-08-09T02:15:08.570Z,2.20
2022-08-09T02:18:09.944Z,2.47
2022-08-09T02:20:36.233Z,2.70
2022-08-09T02:23:08.958Z,2.70
2022-08-09T02:25:42.190Z,2.13
2022-08-09T02:28:20.308Z,2.30
2022-08-09T02:30:55.120Z,2.47
2022-08-09T02:33:58.744Z,2.08
2022-08-09T02:36:23.458Z,2.38
2022-08-09T02:38:56.625Z,2.28
2022-08-09T02:41:29.244Z,2.38
2022-08-09T02:44:10.515Z,2.15
2022-08-09T02:46:52.460Z,2.25
2022-08-09T02:49:20.764Z,2.70
2022-08-09T02:52:08.624Z,2.30
2022-08-09T02:54:54.566Z,2.50
2022-08-09T02:57:25.258Z,2.28
2022-08-09T03:00:20.722Z,2.45
2022-08-09T03:03:00.125Z,2.30
2022-08-09T03:05:29.814Z,2.28
2022-08-09T03:08:04.785Z,2.08
2022-08-09T03:10:35.155Z,2.25
2022-08-09T03:13:08.644Z,2.30
2022-08-09T03:16:05.993Z,2.45
2022-08-09T03:18:31.245Z,2.30
2022-08-09T03:21:02.952Z,2.22
2022-08-09T03:23:31.456Z,2.35
2022-08-09T03:26:03.465Z,2.53
2022-08-09T03:28:35.538Z,2.17
2022-08-09T03:31:04.257Z,2.10
2022-08-09T03:33:53.240Z,2.50
2022-08-09T03:36:27.784Z,2.33
2022-08-09T03:38:57.932Z,2.50
2022-08-09T03:41:30.010Z,2.50
2022-08-09T03:44:12.914Z,2.25
2022-08-09T03:46:44.011Z,3.20
2022-08-09T03:49:17.364Z,2.67
2022-08-09T03:51:58.397Z,2.20
2022-08-09T03:54:32.108Z,2.47
2022-08-09T03:57:04.503Z,2.50
2022-08-09T03:59:54.141Z,2.22
2022-08-09T04:02:26.474Z,2.65
2022-08-09T04:04:58.990Z,2.40
2022-08-09T04:07:47.465Z,2.38
2022-08-09T04:10:18.419Z,2.75
2022-08-09T04:12:50.919Z,2.35
2022-08-09T04:15:42.648Z,2.58
2022-08-09T04:18:16.572Z,2.35
2022-08-09T04:20:48.037Z,2.60
2022-08-09T04:23:17.905Z,2.63
2022-08-09T04:25:52.968Z,2.42
2022-08-09T04:28:33.941Z,2.40
2022-08-09T04:31:10.073Z,3.30
2022-08-09T04:33:51.728Z,2.50
2022-08-09T04:36:24.438Z,2.60
2022-08-09T04:38:52.755Z,2.25
2022-08-09T04:41:23.722Z,2.67
2022-08-09T04:44:04.873Z,2.70
2022-08-09T04:46:38.036Z,2.75
2022-08-09T04:49:30.476Z,2.50
2022-08-09T04:52:18.368Z,2.53
2022-08-09T04:54:51.613Z,2.15
2022-08-09T04:57:21.581Z,2.80
2022-08-09T04:59:52.504Z,2.45
2022-08-09T05:02:20.525Z,3.20
2022-08-09T05:04:48.645Z,3.00
2022-08-09T05:07:27.861Z,2.60
2022-08-09T05:10:01.730Z,2.58
2022-08-09T05:12:32.860Z,2.85
2022-08-09T05:15:03.632Z,2.83
2022-08-09T05:18:39.850Z,3.22
2022-08-09T05:20:29.991Z,2.90
2022-08-09T05:23:54.200Z,2.75
2022-08-09T05:25:50.838Z,2.80
2022-08-09T05:28:19.733Z,2.83
2022-08-09T05:30:48.176Z,2.95
2022-08-09T05:33:16.225Z,2.75
2022-08-09T05:35:46.762Z,2.90
2022-08-09T05:38:22.029Z,2.70
2022-08-09T05:40:50.974Z,3.23
2022-08-09T05:43:20.664Z,2.92
2022-08-09T05:45:57.152Z,2.75
2022-08-09T05:48:27.858Z,2.83
2022-08-09T05:51:42.354Z,3.13
2022-08-09T05:53:56.809Z,3.17
2022-08-09T05:56:28.225Z,3.00
2022-08-09T05:58:58.674Z,2.85
2022-08-09T06:01:33.484Z,2.70
2022-08-09T06:04:05.837Z,2.63
2022-08-09T06:06:34.368Z,2.85
2022-08-09T06:09:05.591Z,3.10
2022-08-09T06:11:56.677Z,3.08
2022-08-09T06:14:25.686Z,3.10
2022-08-09T06:16:55.261Z,3.15
2022-08-09T06:19:25.423Z,3.20
2022-08-09T06:21:58.610Z,2.60
2022-08-09T06:24:28.748Z,3.08
2022-08-09T06:26:56.814Z,3.20
2022-08-09T06:29:24.872Z,2.90
2022-08-09T06:32:09.350Z,3.13
2022-08-09T06:34:43.408Z,3.15
2022-08-09T06:37:11.536Z,3.10
2022-08-09T06:39:57.456Z,2.58
2022-08-09T06:42:30.501Z,2.95
2022-08-09T06:45:52.124Z,2.88
2022-08-09T06:47:49.900Z,3.22
2022-08-09T06:50:31.076Z,2.63
2022-08-09T06:53:00.850Z,2.70
2022-08-09T06:55:33.023Z,2.75
2022-08-09T06:58:04.363Z,2.95
2022-08-09T07:00:54.117Z,3.25
2022-08-09T07:03:27.742Z,2.70
2022-08-09T07:06:02.998Z,3.20
2022-08-09T07:08:34.298Z,2.75
2022-08-09T07:11:04.360Z,3.10
2022-08-09T07:13:44.986Z,2.95
2022-08-09T07:16:41.780Z,3.00
2022-08-09T07:19:15.523Z,3.03
2022-08-09T07:21:55.994Z,2.80
2022-08-09T07:24:32.041Z,2.88
2022-08-09T07:27:03.048Z,3.00
2022-08-09T07:29:38.107Z,2.75
2022-08-09T07:32:11.033Z,3.88
2022-08-09T07:34:39.042Z,2.55
2022-08-09T07:37:15.548Z,2.42
2022-08-09T07:39:44.200Z,2.17
2022-08-09T07:42:16.017Z,2.25
2022-08-09T07:44:53.352Z,2.53
2022-08-09T07:47:49.207Z,2.47
2022-08-09T07:50:11.000Z,2.30
2022-08-09T07:52:42.945Z,2.30
2022-08-09T07:55:11.741Z,2.38
2022-08-09T07:57:47.191Z,2.15
2022-08-09T08:00:20.879Z,2.17
2022-08-09T08:03:05.257Z,2.25
2022-08-09T08:05:39.135Z,2.60
2022-08-09T08:09:02.016Z,2.50
2022-08-09T08:12:09.163Z,2.03
2022-08-09T08:14:01.893Z,2.15
2022-08-09T08:16:32.292Z,2.50
2022-08-09T08:19:02.928Z,2.38
2022-08-09T08:21:31.654Z,2.05
2022-08-09T08:24:01.010Z,2.38
2022-08-09T08:26:54.510Z,2.30
2022-08-09T08:29:20.027Z,2.45
2022-08-09T08:32:03.273Z,2.47
2022-08-09T08:34:36.139Z,2.47
2022-08-09T08:37:05.154Z,2.13
2022-08-09T08:39:39.991Z,2.10
2022-08-09T08:42:12.332Z,2.97
2022-08-09T08:44:43.918Z,2.35
2022-08-09T08:47:15.542Z,2.03
2022-08-09T08:49:48.501Z,1.90
2022-08-09T08:55:07.788Z,1.98
2022-08-09T08:57:37.484Z,2.30
2022-08-09T09:00:17.154Z,2.13
2022-08-09T09:02:52.934Z,1.83
2022-08-09T09:05:58.237Z,2.00
2022-08-09T09:08:30.258Z,2.08
2022-08-09T09:11:02.986Z,1.95
2022-08-09T09:13:34.766Z,2.25
2022-08-09T09:16:29.818Z,2.13
2022-08-09T09:19:22.751Z,1.77
2022-08-09T09:22:03.939Z,1.88
2022-08-09T09:24:37.785Z,2.22
2022-08-09T09:27:08.636Z,2.22
2022-08-09T09:30:13.990Z,1.90
2022-08-09T09:32:34.686Z,2.28
2022-08-09T09:35:09.057Z,2.13
2022-08-09T09:37:40.167Z,2.05
2022-08-09T09:40:10.238Z,1.88
2022-08-09T09:42:42.794Z,2.10
2022-08-09T09:45:26.628Z,1.92
2022-08-09T09:47:59.564Z,1.88
2022-08-09T09:50:50.850Z,1.63
2022-08-09T09:53:25.032Z,1.90
2022-08-09T09:56:20.067Z,2.17
2022-08-09T09:58:58.691Z,2.15
2022-08-09T10:01:38.163Z,1.80
2022-08-09T10:04:16.018Z,1.92
2022-08-09T10:06:53.901Z,2.00
2022-08-09T10:09:23.979Z,2.30
2022-08-09T10:12:11.812Z,1.80
2022-08-09T10:14:47.699Z,1.67
2022-08-09T10:17:39.972Z,2.03
2022-08-09T10:20:27.409Z,1.85
2022-08-09T10:23:17.420Z,1.80
2022-08-09T10:26:06.727Z,1.80
2022-08-09T10:28:38.223Z,2.20
2022-08-09T10:34:10.790Z,1.50
2022-08-09T10:36:46.052Z,2.10
2022-08-09T10:39:18.357Z,1.70
2022-08-09T10:41:48.356Z,1.98
2022-08-09T10:44:21.751Z,2.08
2022-08-09T10:47:14.197Z,2.30
2022-08-09T10:50:06.322Z,2.40
2022-08-09T10:53:13.087Z,2.15
2022-08-09T10:55:55.700Z,2.10
2022-08-09T10:58:33.932Z,1.98
2022-08-09T11:03:02.388Z,2.00
2022-08-09T11:04:19.989Z,2.00
2022-08-09T11:07:58.427Z,1.70
2022-08-09T11:10:47.059Z,6.93
2022-08-09T11:13:50.826Z,2.55
2022-08-09T11:16:35.542Z,3.22
2022-08-09T11:19:09.508Z,1.98
2022-08-09T11:22:10.262Z,2.28
2022-08-09T11:25:10.359Z,3.80
2022-08-09T11:28:03.971Z,1.95
2022-08-09T11:30:35.738Z,3.10
2022-08-09T11:33:06.038Z,2.08
2022-08-09T11:35:49.653Z,2.63
2022-08-09T11:38:32.186Z,2.08
2022-08-09T11:41:05.551Z,2.08
2022-08-09T11:43:44.504Z,3.33
2022-08-09T11:46:18.640Z,4.72
2022-08-09T11:49:05.288Z,1.83
2022-08-09T11:53:02.499Z,1.90
2022-08-09T11:55:34.932Z,2.00
2022-08-09T11:58:42.199Z,1.88
2022-08-09T12:02:15.865Z,2.35
2022-08-09T12:04:20.856Z,1.77
2022-08-09T12:06:57.735Z,1.90
2022-08-09T12:09:33.808Z,2.20
2022-08-09T12:12:12.947Z,1.85
2022-08-09T12:15:04.682Z,2.38
2022-08-09T12:17:43.298Z,2.50
2022-08-09T12:20:21.852Z,2.10
2022-08-09T12:22:52.700Z,1.88
2022-08-09T12:25:36.307Z,2.30
2022-08-09T12:29:10.809Z,2.05
2022-08-09T12:30:58.811Z,2.10
2022-08-09T12:33:51.487Z,1.90
2022-08-09T12:36:31.950Z,1.88
2022-08-09T12:39:02.411Z,1.90
2022-08-09T12:41:39.725Z,1.90
2022-08-09T12:44:12.751Z,2.15
2022-08-09T12:49:12.058Z,2.00
2022-08-09T12:52:00.029Z,1.92
2022-08-09T12:54:29.030Z,1.88
2022-08-09T12:57:00.362Z,1.83
2022-08-09T12:59:39.951Z,1.73
2022-08-09T13:02:21.693Z,1.67
2022-08-09T13:05:02.361Z,2.00
2022-08-09T13:07:50.221Z,1.75
2022-08-09T13:10:18.892Z,1.85
2022-08-09T13:13:09.197Z,1.65
2022-08-09T13:15:52.171Z,1.85
2022-08-09T13:18:27.298Z,1.63
2022-08-09T13:22:33.955Z,1.60
2022-08-09T13:24:16.461Z,1.50
2022-08-09T13:26:37.235Z,1.40
2022-08-09T13:29:13.273Z,1.70
2022-08-09T13:32:20.234Z,1.48
2022-08-09T13:34:46.752Z,1.50
2022-08-09T13:37:24.680Z,1.42
2022-08-09T13:41:52.043Z,2.03
2022-08-09T13:42:51.848Z,1.73
2022-08-09T13:45:21.530Z,1.52
2022-08-09T13:48:00.009Z,1.50
2022-08-09T13:50:30.813Z,1.75
2022-08-09T13:52:59.911Z,1.65
2022-08-09T13:55:28.788Z,1.60
2022-08-09T13:57:58.503Z,1.60
2022-08-09T14:00:30.439Z,1.60
2022-08-09T14:03:16.739Z,1.20
2022-08-09T14:05:57.065Z,1.55
2022-08-09T14:08:28.752Z,1.88
2022-08-09T14:11:00.267Z,1.60
2022-08-09T14:14:22.088Z,1.60
2022-08-09T14:16:28.011Z,1.40
2022-08-09T14:18:58.513Z,1.45
2022-08-09T14:21:29.286Z,1.45
2022-08-09T14:24:01.275Z,1.80
2022-08-09T14:26:34.397Z,1.35
2022-08-09T14:29:25.609Z,1.70
2022-08-09T14:31:57.474Z,1.30
2022-08-09T14:34:31.609Z,1.50
2022-08-09T14:37:05.998Z,1.48
2022-08-09T14:39:47.418Z,1.83
2022-08-09T14:42:31.929Z,2.28
2022-08-09T14:46:55.820Z,1.77
2022-08-09T14:47:58.423Z,1.67
2022-08-09T14:50:28.253Z,1.60
2022-08-09T14:52:56.334Z,1.27
2022-08-09T14:55:25.802Z,1.40
2022-08-09T14:58:00.243Z,1.50
2022-08-09T15:00:34.879Z,1.33
2022-08-09T15:03:08.842Z,1.27
2022-08-09T15:05:39.701Z,1.40
2022-08-09T15:08:18.882Z,1.60
2022-08-09T15:11:01.635Z,1.67
2022-08-09T15:13:55.870Z,1.38
2022-08-09T15:16:23.310Z,1.40
2022-08-09T15:19:05.895Z,1.70
2022-08-09T15:21:56.275Z,1.30
2022-08-09T15:24:27.982Z,1.45
2022-08-09T15:26:56.391Z,1.50
2022-08-09T15:30:56.811Z,1.50
2022-08-09T15:32:28.400Z,1.60
2022-08-09T15:35:00.946Z,1.60
2022-08-09T15:37:36.894Z,1.70
2022-08-09T15:40:11.838Z,1.50
2022-08-09T15:42:43.306Z,1.45
2022-08-09T15:45:15.183Z,1.38
2022-08-09T15:48:02.505Z,1.55
2022-08-09T15:50:39.079Z,1.40
2022-08-09T15:53:18.516Z,1.60
2022-08-09T15:56:20.939Z,1.40
2022-08-09T15:58:43.660Z,1.40
2022-08-09T16:01:11.833Z,1.33
2022-08-09T16:03:41.711Z,1.52
2022-08-09T16:06:16.128Z,1.52
2022-08-09T16:09:01.209Z,1.35
2022-08-09T16:11:33.019Z,1.50
2022-08-09T16:14:06.016Z,1.33
2022-08-09T16:16:36.956Z,1.60
2022-08-09T16:19:06.111Z,1.52
2022-08-09T16:21:37.710Z,1.15
2022-08-09T16:24:08.841Z,1.40
2022-08-09T16:26:55.112Z,1.30
2022-08-09T16:29:36.881Z,1.30
2022-08-09T16:32:18.561Z,1.27
2022-08-09T16:34:56.446Z,1.42
2022-08-09T16:37:54.604Z,1.13
2022-08-09T16:40:20.664Z,1.20
2022-08-09T16:42:58.655Z,1.23
2022-08-09T16:45:27.155Z,1.45
2022-08-09T16:48:39.645Z,1.13
2022-08-09T16:50:58.856Z,1.30
2022-08-09T16:53:32.540Z,1.30
2022-08-09T16:56:09.397Z,1.23
2022-08-09T16:58:39.808Z,1.48
2022-08-09T17:01:10.885Z,1.37
2022-08-09T17:03:41.659Z,1.30
2022-08-09T17:06:28.987Z,1.38
2022-08-09T17:09:11.723Z,1.33
2022-08-09T17:11:51.312Z,1.42
2022-08-09T17:14:25.566Z,1.35
2022-08-09T17:16:59.818Z,1.38
2022-08-09T17:19:47.607Z,1.40
2022-08-09T17:22:24.748Z,1.38
2022-08-09T17:25:03.229Z,1.50
2022-08-09T17:27:32.928Z,1.38
2022-08-09T17:30:04.840Z,1.58
2022-08-09T17:32:37.786Z,1.38
2022-08-09T17:35:11.382Z,1.15
2022-08-09T17:38:12.112Z,1.20
2022-08-09T17:40:32.663Z,1.35
2022-08-09T17:43:32.342Z,1.27
2022-08-09T17:46:03.288Z,1.80
2022-08-09T17:48:33.917Z,1.52
2022-08-09T17:51:09.726Z,1.50
2022-08-09T17:53:51.407Z,1.42
2022-08-09T17:56:26.552Z,2.13
2022-08-09T17:58:57.067Z,2.17
2022-08-09T18:01:25.140Z,1.88
2022-08-09T18:03:54.237Z,1.88
2022-08-09T18:06:32.219Z,1.70
2022-08-09T18:09:03.090Z,1.80
2022-08-09T18:12:05.162Z,1.38
2022-08-09T18:14:22.714Z,1.60
2022-08-09T18:16:51.017Z,1.40
2022-08-09T18:20:58.070Z,1.65
2022-08-09T18:22:12.982Z,1.42
2022-08-09T18:24:41.497Z,1.42
2022-08-09T18:27:13.595Z,1.30
2022-08-09T18:30:41.056Z,1.38
2022-08-09T18:32:30.291Z,2.25
2022-08-09T18:34:58.464Z,1.40
2022-08-09T18:37:46.890Z,1.20
2022-08-09T18:40:15.529Z,1.58
2022-08-09T18:42:47.868Z,1.30
2022-08-09T18:46:44.927Z,1.27
2022-08-09T18:48:03.861Z,1.50
2022-08-09T18:50:33.528Z,1.55
2022-08-09T18:53:02.043Z,1.48
2022-08-09T18:55:56.586Z,1.60
2022-08-09T18:58:32.008Z,1.60
2022-08-09T19:01:00.743Z,1.75
2022-08-09T19:03:28.967Z,1.80
2022-08-09T19:06:03.466Z,1.67
2022-08-09T19:08:32.276Z,1.92
2022-08-09T19:11:00.354Z,1.90
2022-08-09T19:13:46.802Z,2.00
2022-08-09T19:16:20.818Z,1.75
2022-08-09T19:18:49.700Z,1.40
2022-08-09T19:21:21.636Z,1.75
2022-08-09T19:24:38.413Z,1.83
2022-08-09T19:26:55.005Z,1.50
2022-08-09T19:29:24.816Z,1.73
2022-08-09T19:31:53.169Z,1.80
2022-08-09T19:34:28.367Z,1.65
2022-08-09T19:36:58.603Z,1.90
2022-08-09T19:39:42.873Z,1.73
2022-08-09T19:42:19.244Z,1.73
2022-08-09T19:44:51.093Z,1.73
2022-08-09T19:47:22.623Z,1.77
2022-08-09T19:50:07.436Z,2.30
2022-08-09T19:52:38.652Z,1.52
2022-08-09T19:55:30.607Z,1.90
2022-08-09T19:58:16.017Z,1.48
2022-08-09T20:00:47.385Z,1.90
2022-08-09T20:04:27.880Z,1.77
2022-08-09T20:06:10.495Z,1.55
2022-08-09T20:08:51.443Z,1.58
2022-08-09T20:11:21.547Z,1.60
2022-08-09T20:13:54.926Z,1.60
2022-08-09T20:16:37.770Z,1.50
2022-08-09T20:19:47.987Z,1.52
2022-08-09T20:22:00.174Z,1.70
2022-08-09T20:24:33.831Z,1.60
2022-08-09T20:27:05.637Z,1.70
2022-08-09T20:29:38.628Z,1.58
2022-08-09T20:32:30.615Z,1.80
2022-08-09T20:34:58.109Z,1.80
2022-08-09T20:38:19.562Z,1.30
2022-08-09T20:40:18.989Z,1.50
2022-08-09T20:43:00.077Z,1.25
2022-08-09T20:46:01.812Z,2.03
2022-08-09T20:48:31.016Z,1.58
2022-08-09T20:50:59.597Z,1.50
2022-08-09T20:53:36.703Z,1.77
2022-08-09T20:56:08.704Z,1.85
2022-08-09T20:58:38.091Z,1.50
2022-08-09T21:01:33.622Z,1.40
2022-08-09T21:05:48.720Z,1.90
2022-08-09T21:06:45.140Z,1.70
2022-08-09T21:09:24.779Z,1.65
2022-08-09T21:14:38.244Z,1.42
2022-08-09T21:18:22.560Z,1.60
2022-08-09T21:20:18.315Z,1.73
2022-08-09T21:22:46.987Z,1.88
2022-08-09T21:25:38.580Z,1.65
2022-08-09T21:28:07.565Z,2.00
2022-08-09T21:30:40.865Z,1.60
2022-08-09T21:33:09.281Z,1.40
2022-08-09T21:35:51.009Z,1.70
2022-08-09T21:38:30.837Z,1.45
2022-08-09T21:40:59.093Z,1.50
2022-08-09T21:43:56.775Z,1.50
2022-08-09T21:46:16.382Z,1.55
2022-08-09T21:48:49.044Z,1.30
2022-08-09T21:54:04.768Z,1.52
2022-08-09T21:56:42.807Z,1.67
2022-08-09T21:59:16.166Z,1.80
2022-08-09T22:02:01.178Z,1.42
2022-08-09T22:04:55.532Z,1.52
2022-08-09T22:07:35.051Z,1.50
2022-08-09T22:10:09.699Z,1.75
2022-08-09T22:12:38.908Z,1.42
2022-08-09T22:15:16.588Z,1.65
2022-08-09T22:17:47.222Z,1.30
2022-08-09T22:20:17.114Z,1.90
2022-08-09T22:22:51.496Z,1.48
2022-08-09T22:26:07.454Z,1.58
2022-08-09T22:28:08.684Z,1.50
2022-08-09T22:30:36.894Z,1.42
2022-08-09T22:33:09.391Z,1.60
2022-08-09T22:35:59.884Z,1.55
2022-08-09T22:38:27.578Z,1.80
2022-08-09T22:40:58.134Z,1.73
2022-08-09T22:44:02.427Z,1.63
2022-08-09T22:48:16.514Z,1.85
2022-08-09T22:49:10.271Z,1.83
2022-08-09T22:51:43.531Z,1.60
2022-08-09T22:54:21.415Z,1.73
2022-08-09T22:56:50.888Z,1.50
2022-08-09T22:59:58.317Z,1.63
2022-08-09T23:02:15.158Z,1.30
2022-08-09T23:04:53.685Z,1.58
2022-08-09T23:08:27.414Z,1.67
2022-08-09T23:10:32.077Z,1.70
2022-08-09T23:13:01.022Z,1.67
2022-08-09T23:15:30.651Z,1.60
2022-08-09T23:17:58.861Z,1.60
2022-08-09T23:20:28.725Z,1.70
2022-08-09T23:22:56.987Z,1.67
2022-08-09T23:25:25.069Z,1.90
2022-08-09T23:28:09.510Z,1.50
2022-08-09T23:30:51.527Z,1.80
2022-08-09T23:33:21.395Z,1.70
2022-08-09T23:36:04.863Z,2.25
2022-08-09T23:38:35.936Z,1.80
2022-08-09T23:41:27.701Z,1.50
2022-08-09T23:43:59.685Z,1.60
2022-08-09T23:46:28.204Z,1.48
2022-08-09T23:48:56.467Z,1.60
2022-08-09T23:51:28.354Z,1.95
2022-08-09T23:54:02.893Z,1.90
2022-08-09T23:56:52.885Z,1.85
2022-08-09T23:59:24.146Z,1.50
